createdAt,value
2022-11-05T00:00:37.491Z,49.20
2022-11-05T00:03:28.965Z,44.70
2022-11-05T00:06:15.166Z,44.70
2022-11-05T00:09:01.691Z,50.40
2022-11-05T00:11:47.784Z,48.50
2022-11-05T00:14:34.087Z,42.00
2022-11-05T00:17:01.895Z,47.20
2022-11-05T00:19:29.675Z,47.10
2022-11-05T00:22:16.265Z,45.80
2022-11-05T00:25:02.584Z,43.40
2022-11-05T00:27:34.173Z,43.00
2022-11-05T00:30:01.977Z,44.00
2022-11-05T00:32:29.841Z,45.70
2022-11-05T00:34:57.665Z,43.20
2022-11-05T00:37:28.222Z,40.40
2022-11-05T00:39:56.161Z,39.90
2022-11-05T00:42:42.426Z,38.30
2022-11-05T00:45:10.694Z,38.10
2022-11-05T00:47:58.042Z,34.20
2022-11-05T00:50:26.564Z,34.00
2022-11-05T00:53:00.739Z,35.00
2022-11-05T00:55:30.210Z,29.30
2022-11-05T00:57:58.275Z,32.10
2022-11-05T01:00:29.563Z,32.40
2022-11-05T01:02:59.577Z,30.00
2022-11-05T01:05:28.289Z,32.00
2022-11-05T01:07:56.534Z,31.50
2022-11-05T01:10:24.907Z,32.70
2022-11-05T01:12:53.297Z,31.20
2022-11-05T01:15:21.502Z,32.30
2022-11-05T01:17:51.173Z,36.10
2022-11-05T01:20:18.914Z,34.10
2022-11-05T01:22:46.862Z,30.30
2022-11-05T01:25:14.834Z,31.50
2022-11-05T01:27:42.642Z,28.20
2022-11-05T01:30:13.432Z,27.10
2022-11-05T01:32:41.755Z,27.40
2022-11-05T01:35:14.083Z,25.90
2022-11-05T01:37:42.257Z,27.00
2022-11-05T01:40:19.748Z,26.10
2022-11-05T01:42:47.672Z,24.60
2022-11-05T01:45:25.576Z,24.50
2022-11-05T01:48:24.670Z,26.10
2022-11-05T01:51:03.346Z,24.50
2022-11-05T01:53:52.085Z,22.10
2022-11-05T01:56:38.266Z,20.50
2022-11-05T01:59:16.946Z,21.10
2022-11-05T02:01:45.446Z,20.70
2022-11-05T02:04:21.405Z,20.50
2022-11-05T02:06:49.284Z,23.20
2022-11-05T02:09:33.515Z,21.00
2022-11-05T02:12:01.460Z,21.70
2022-11-05T02:14:29.364Z,23.80
2022-11-05T02:17:06.149Z,20.80
2022-11-05T02:20:09.699Z,20.50
2022-11-05T02:23:02.321Z,20.40
2022-11-05T02:26:07.915Z,20.10
2022-11-05T02:29:00.356Z,19.00
2022-11-05T02:32:08.066Z,17.30
2022-11-05T02:35:19.325Z,19.20
2022-11-05T02:37:54.791Z,20.70
2022-11-05T02:40:30.706Z,19.70
2022-11-05T02:43:26.285Z,17.50
2022-11-05T02:46:03.979Z,19.90
2022-11-05T02:49:19.217Z,18.50
2022-11-05T02:51:57.987Z,17.00
2022-11-05T02:54:51.489Z,19.60
2022-11-05T02:57:22.048Z,16.80
2022-11-05T03:00:01.860Z,18.60
2022-11-05T03:02:29.941Z,16.80
2022-11-05T03:04:58.904Z,16.50
2022-11-05T03:07:45.849Z,15.70
2022-11-05T03:10:33.772Z,18.20
2022-11-05T03:13:18.367Z,16.70
2022-11-05T03:16:13.344Z,17.40
2022-11-05T03:18:51.747Z,18.60
2022-11-05T03:21:35.758Z,17.80
2022-11-05T03:24:17.302Z,17.30
2022-11-05T03:27:23.981Z,15.90
2022-11-05T03:29:59.619Z,17.40
2022-11-05T03:32:30.798Z,17.00
2022-11-05T03:35:06.460Z,15.60
2022-11-05T03:37:37.919Z,16.40
2022-11-05T03:40:08.981Z,12.80
2022-11-05T03:42:39.380Z,12.60
2022-11-05T03:45:27.117Z,10.20
2022-11-05T03:47:58.317Z,9.90
2022-11-05T03:50:51.173Z,9.70
2022-11-05T03:53:27.365Z,10.10
2022-11-05T03:56:06.937Z,10.20
2022-11-05T03:58:35.569Z,8.10
2022-11-05T04:01:04.234Z,9.10
2022-11-05T04:03:36.674Z,9.50
2022-11-05T04:06:25.618Z,9.30
2022-11-05T04:09:12.275Z,9.80
2022-11-05T04:11:58.591Z,9.20
2022-11-05T04:14:26.623Z,9.10
2022-11-05T04:17:06.401Z,9.40
2022-11-05T04:20:03.733Z,10.30
2022-11-05T04:22:53.198Z,9.70
2022-11-05T04:25:22.078Z,12.00
2022-11-05T04:27:50.140Z,9.10
2022-11-05T04:30:19.456Z,11.00
2022-11-05T04:33:02.478Z,8.90
2022-11-05T04:35:42.248Z,8.30
2022-11-05T04:38:14.781Z,8.30
2022-11-05T04:40:43.218Z,9.00
2022-11-05T04:43:17.533Z,9.50
2022-11-05T04:45:46.020Z,9.30
2022-11-05T04:48:13.862Z,8.20
2022-11-05T04:50:41.803Z,7.30
2022-11-05T04:53:09.816Z,7.20
2022-11-05T04:55:37.815Z,8.70
2022-11-05T04:58:05.667Z,8.20
2022-11-05T05:00:33.495Z,11.90
2022-11-05T05:03:01.381Z,9.80
2022-11-05T05:05:30.603Z,8.30
2022-11-05T05:08:05.900Z,10.80
2022-11-05T05:10:33.737Z,8.10
2022-11-05T05:13:01.530Z,9.70
2022-11-05T05:15:29.337Z,9.60
2022-11-05T05:17:57.176Z,8.50
2022-11-05T05:20:43.358Z,8.70
2022-11-05T05:23:11.365Z,8.00
2022-11-05T05:25:39.360Z,8.50
2022-11-05T05:28:07.238Z,8.50
2022-11-05T05:30:35.062Z,10.20
2022-11-05T05:33:04.560Z,7.30
2022-11-05T05:35:32.408Z,7.40
2022-11-05T05:38:00.234Z,7.00
2022-11-05T05:40:28.127Z,6.10
2022-11-05T05:42:56.065Z,7.20
2022-11-05T05:45:23.920Z,12.90
2022-11-05T05:47:51.846Z,13.10
2022-11-05T05:50:19.619Z,10.00
2022-11-05T05:52:47.634Z,6.70
2022-11-05T05:55:15.508Z,8.00
2022-11-05T05:57:43.393Z,5.90
2022-11-05T06:00:12.455Z,6.30
2022-11-05T06:02:41.726Z,6.90
2022-11-05T06:05:11.148Z,7.70
2022-11-05T06:07:38.999Z,7.60
2022-11-05T06:10:07.255Z,9.70
2022-11-05T06:12:35.084Z,7.70
2022-11-05T06:15:03.187Z,7.30
2022-11-05T06:17:31.040Z,7.70
2022-11-05T06:19:58.778Z,8.00
2022-11-05T06:22:26.551Z,7.20
2022-11-05T06:24:54.361Z,6.30
2022-11-05T06:27:22.261Z,7.50
2022-11-05T06:29:50.013Z,7.70
2022-11-05T06:32:17.745Z,7.70
2022-11-05T06:34:45.588Z,6.30
2022-11-05T06:37:14.634Z,7.20
2022-11-05T06:39:42.561Z,9.50
2022-11-05T06:42:18.936Z,6.40
2022-11-05T06:44:47.292Z,10.40
2022-11-05T06:47:20.921Z,11.70
2022-11-05T06:49:49.361Z,9.10
2022-11-05T06:52:17.201Z,7.70
2022-11-05T06:54:45.015Z,9.00
2022-11-05T06:57:13.113Z,6.00
2022-11-05T06:59:41.351Z,8.60
2022-11-05T07:02:12.940Z,7.90
2022-11-05T07:04:40.905Z,6.80
2022-11-05T07:07:08.805Z,6.30
2022-11-05T07:09:42.717Z,8.90
2022-11-05T07:12:11.131Z,8.90
2022-11-05T07:14:39.391Z,10.40
2022-11-05T07:17:07.340Z,10.10
2022-11-05T07:19:35.184Z,8.00
2022-11-05T07:22:03.029Z,8.50
2022-11-05T07:24:30.894Z,6.90
2022-11-05T07:26:58.847Z,7.60
2022-11-05T07:29:26.610Z,9.30
2022-11-05T07:31:54.586Z,7.70
2022-11-05T07:34:22.386Z,9.10
2022-11-05T07:36:50.285Z,12.90
2022-11-05T07:39:18.382Z,9.20
2022-11-05T07:41:46.295Z,8.80
2022-11-05T07:44:14.573Z,8.60
2022-11-05T07:46:42.520Z,11.90
2022-11-05T07:49:10.563Z,9.00
2022-11-05T07:51:43.097Z,12.30
2022-11-05T07:54:11.136Z,10.50
2022-11-05T07:56:39.034Z,7.80
2022-11-05T07:59:06.948Z,12.10
2022-11-05T08:01:35.022Z,8.30
2022-11-05T08:04:06.258Z,9.80
2022-11-05T08:06:43.231Z,6.80
2022-11-05T08:09:11.363Z,7.30
2022-11-05T08:11:40.066Z,10.60
2022-11-05T08:14:08.255Z,10.60
2022-11-05T08:16:36.069Z,7.70
2022-11-05T08:19:04.773Z,10.00
2022-11-05T08:21:32.675Z,10.60
2022-11-05T08:24:00.472Z,8.60
2022-11-05T08:26:28.268Z,10.80
2022-11-05T08:28:56.046Z,11.80
2022-11-05T08:31:23.884Z,9.70
2022-11-05T08:34:09.920Z,11.30
2022-11-05T08:36:37.789Z,8.70
2022-11-05T08:39:05.568Z,11.20
2022-11-05T08:41:33.461Z,8.60
2022-11-05T08:44:01.316Z,9.10
2022-11-05T08:46:29.310Z,8.80
2022-11-05T08:48:57.097Z,11.10
2022-11-05T08:51:24.974Z,9.20
2022-11-05T08:53:52.764Z,9.80
2022-11-05T08:56:20.843Z,6.10
2022-11-05T08:58:48.845Z,9.20
2022-11-05T09:01:17.003Z,11.10
2022-11-05T09:03:45.180Z,10.10
2022-11-05T09:06:13.162Z,10.40
2022-11-05T09:08:41.090Z,12.00
2022-11-05T09:11:09.028Z,15.60
2022-11-05T09:13:36.866Z,11.10
2022-11-05T09:16:05.443Z,12.90
2022-11-05T09:18:33.745Z,14.20
2022-11-05T09:21:01.547Z,13.10
2022-11-05T09:25:50.630Z,11.70
2022-11-05T09:28:21.636Z,11.40
2022-11-05T09:30:53.089Z,12.80
2022-11-05T09:33:26.686Z,15.10
2022-11-05T09:35:54.725Z,13.50
2022-11-05T09:38:22.592Z,12.00
2022-11-05T09:41:02.360Z,13.30
2022-11-05T09:43:49.893Z,17.00
2022-11-05T09:46:21.019Z,16.90
2022-11-05T09:49:03.459Z,13.50
2022-11-05T09:51:32.431Z,11.20
2022-11-05T09:54:00.735Z,14.10
2022-11-05T09:56:34.421Z,12.20
2022-11-05T09:59:40.220Z,15.60
2022-11-05T10:02:35.850Z,10.60
2022-11-05T10:05:10.211Z,12.40
2022-11-05T10:07:48.633Z,10.50
2022-11-05T10:10:50.257Z,15.20
2022-11-05T10:13:23.654Z,12.80
2022-11-05T10:16:03.267Z,11.80
2022-11-05T10:18:41.126Z,14.60
2022-11-05T10:21:16.935Z,12.40
2022-11-05T10:23:48.137Z,20.40
2022-11-05T10:26:21.240Z,10.40
2022-11-05T10:28:49.632Z,18.60
2022-11-05T10:31:23.292Z,16.40
2022-11-05T10:34:02.138Z,17.80
2022-11-05T10:36:34.612Z,12.80
2022-11-05T10:39:20.395Z,12.80
2022-11-05T10:42:33.354Z,13.20
2022-11-05T10:45:04.597Z,13.70
2022-11-05T10:48:26.173Z,17.30
2022-11-05T10:50:54.267Z,12.30
2022-11-05T10:53:34.577Z,13.70
2022-11-05T10:56:02.863Z,14.20
2022-11-05T10:58:34.894Z,19.70
2022-11-05T11:01:11.122Z,12.40
2022-11-05T11:04:03.864Z,13.20
2022-11-05T11:06:39.991Z,11.20
2022-11-05T11:09:20.045Z,10.80
2022-11-05T11:11:55.516Z,18.80
2022-11-05T11:14:23.349Z,14.00
2022-11-05T11:16:51.911Z,11.00
2022-11-05T11:19:31.827Z,11.80
2022-11-05T11:22:05.853Z,17.20
2022-11-05T11:24:54.198Z,12.50
2022-11-05T11:27:27.416Z,16.10
2022-11-05T11:30:04.995Z,14.40
2022-11-05T11:32:37.918Z,23.80
2022-11-05T11:35:09.071Z,12.80
2022-11-05T11:37:42.190Z,17.70
2022-11-05T11:40:45.272Z,25.60
2022-11-05T11:43:26.076Z,15.00
2022-11-05T11:45:59.382Z,14.30
2022-11-05T11:48:32.021Z,17.40
2022-11-05T11:51:00.179Z,16.20
2022-11-05T11:53:34.756Z,16.20
2022-11-05T11:56:14.080Z,18.40
2022-11-05T11:58:43.828Z,17.00
2022-11-05T12:01:43.078Z,17.00
2022-11-05T12:04:29.374Z,15.50
2022-11-05T12:07:25.398Z,18.90
2022-11-05T12:10:35.458Z,15.90
2022-11-05T12:13:24.522Z,18.80
2022-11-05T12:16:15.807Z,14.50
2022-11-05T12:19:05.119Z,16.30
2022-11-05T12:21:58.941Z,17.20
2022-11-05T12:25:13.020Z,17.90
2022-11-05T12:28:57.703Z,22.10
2022-11-05T12:32:08.499Z,18.80
2022-11-05T12:35:14.736Z,14.50
2022-11-05T12:38:09.441Z,21.10
2022-11-05T12:40:44.265Z,12.80
2022-11-05T12:43:15.368Z,13.70
2022-11-05T12:45:46.645Z,21.20
2022-11-05T12:48:46.999Z,16.10
2022-11-05T12:51:37.064Z,14.00
2022-11-05T12:54:25.819Z,15.80
2022-11-05T12:56:58.293Z,19.50
2022-11-05T13:00:03.762Z,18.00
2022-11-05T13:02:46.497Z,18.10
2022-11-05T13:05:34.642Z,21.30
2022-11-05T13:08:13.312Z,11.70
2022-11-05T13:11:16.021Z,9.80
2022-11-05T13:14:06.319Z,14.50
2022-11-05T13:16:42.779Z,15.20
2022-11-05T13:19:41.417Z,12.40
2022-11-05T13:22:17.785Z,15.40
2022-11-05T13:24:51.788Z,22.20
2022-11-05T13:27:50.710Z,19.00
2022-11-05T13:30:26.176Z,15.90
2022-11-05T13:33:03.324Z,16.90
2022-11-05T13:35:41.038Z,11.00
2022-11-05T13:38:37.251Z,14.60
2022-11-05T13:41:25.811Z,13.30
2022-11-05T13:44:24.200Z,14.60
2022-11-05T13:47:52.483Z,14.00
2022-11-05T13:50:55.126Z,11.70
2022-11-05T13:54:02.693Z,9.70
2022-11-05T13:57:26.528Z,11.20
2022-11-05T14:00:23.720Z,9.00
2022-11-05T14:03:05.757Z,20.00
2022-11-05T14:05:35.632Z,15.90
2022-11-05T14:08:20.151Z,16.90
2022-11-05T14:11:18.680Z,10.90
2022-11-05T14:13:46.975Z,9.10
2022-11-05T14:16:21.735Z,9.80
2022-11-05T14:19:18.274Z,9.90
2022-11-05T14:21:54.641Z,8.50
2022-11-05T14:24:22.472Z,13.80
2022-11-05T14:27:02.644Z,10.10
2022-11-05T14:29:44.864Z,16.40
2022-11-05T14:32:18.882Z,8.60
2022-11-05T14:34:49.047Z,10.60
2022-11-05T14:37:28.450Z,14.80
2022-11-05T14:39:57.497Z,11.10
2022-11-05T14:42:29.877Z,10.60
2022-11-05T14:44:59.818Z,10.60
2022-11-05T14:47:41.742Z,14.00
2022-11-05T14:50:41.131Z,9.30
2022-11-05T14:53:35.136Z,9.00
2022-11-05T14:56:14.836Z,13.90
2022-11-05T14:58:44.838Z,10.60
2022-11-05T15:01:15.632Z,12.30
2022-11-05T15:04:01.211Z,15.70
2022-11-05T15:06:33.253Z,8.50
2022-11-05T15:09:05.791Z,18.50
2022-11-05T15:14:16.860Z,18.70
2022-11-05T15:16:51.180Z,14.10
2022-11-05T15:19:32.670Z,16.70
2022-11-05T15:22:20.000Z,10.70
2022-11-05T15:24:48.241Z,10.90
2022-11-05T15:27:34.489Z,13.00
2022-11-05T15:30:23.927Z,13.00
2022-11-05T15:32:52.463Z,13.90
2022-11-05T15:35:26.971Z,9.80
2022-11-05T15:38:02.111Z,20.80
2022-11-05T15:40:33.901Z,16.70
2022-11-05T15:43:19.449Z,14.60
2022-11-05T15:46:06.571Z,22.20
2022-11-05T15:48:36.012Z,27.40
2022-11-05T15:51:04.146Z,29.90
2022-11-05T15:53:51.552Z,26.30
2022-11-05T15:56:41.336Z,33.70
2022-11-05T15:59:19.365Z,37.50
2022-11-05T16:02:05.246Z,36.40
2022-11-05T16:04:36.536Z,31.40
2022-11-05T16:07:10.586Z,25.60
2022-11-05T16:09:43.763Z,19.50
2022-11-05T16:12:25.580Z,25.40
2022-11-05T16:15:10.071Z,32.20
2022-11-05T16:17:37.915Z,22.40
2022-11-05T16:20:35.856Z,33.60
2022-11-05T16:23:23.437Z,49.10
2022-11-05T16:25:53.791Z,57.40
2022-11-05T16:28:30.269Z,102.40
2022-11-05T16:31:01.988Z,70.30
2022-11-05T16:33:44.474Z,66.90
2022-11-05T16:36:15.784Z,44.30
2022-11-05T16:38:54.726Z,46.40
2022-11-05T16:41:25.461Z,56.30
2022-11-05T16:43:59.606Z,56.40
2022-11-05T16:46:29.646Z,43.20
2022-11-05T16:48:58.047Z,44.60
2022-11-05T16:51:29.025Z,34.10
2022-11-05T16:53:57.020Z,27.50
2022-11-05T16:56:24.932Z,28.20
2022-11-05T16:58:53.365Z,24.20
2022-11-05T17:01:23.348Z,194.40
2022-11-05T17:03:53.283Z,338.90
2022-11-05T17:06:22.486Z,145.30
2022-11-05T17:20:57.593Z,53.40
2022-11-05T17:23:29.893Z,105.00
2022-11-05T17:26:05.830Z,115.00
2022-11-05T17:28:34.254Z,106.60
2022-11-05T17:31:05.017Z,63.80
2022-11-05T17:33:33.667Z,38.00
2022-11-05T17:36:11.800Z,37.10
2022-11-05T17:38:40.667Z,58.90
2022-11-05T17:41:19.007Z,59.80
2022-11-05T17:43:48.002Z,60.50
2022-11-05T17:46:19.439Z,70.10
2022-11-05T17:48:47.528Z,63.10
2022-11-05T17:51:18.756Z,64.40
2022-11-05T17:53:49.352Z,60.00
2022-11-05T17:56:29.202Z,59.60
2022-11-05T17:59:03.218Z,59.60
2022-11-05T18:01:34.769Z,64.40
2022-11-05T18:04:08.730Z,83.90
2022-11-05T18:06:39.613Z,89.70
2022-11-05T18:09:09.346Z,121.50
2022-11-05T18:11:38.639Z,176.40
2022-11-05T18:14:07.372Z,173.60
2022-11-05T18:16:35.298Z,160.70
2022-11-05T18:19:04.069Z,248.40
2022-11-05T18:21:31.949Z,157.40
2022-11-05T18:24:04.132Z,102.10
2022-11-05T18:26:33.133Z,77.30
2022-11-05T18:29:03.129Z,87.40
2022-11-05T18:31:31.171Z,101.60
2022-11-05T18:33:59.819Z,126.90
2022-11-05T18:36:30.366Z,99.10
2022-11-05T18:39:01.188Z,71.10
2022-11-05T18:41:29.460Z,60.50
2022-11-05T18:44:02.447Z,61.00
2022-11-05T18:49:19.955Z,97.50
2022-11-05T18:51:48.214Z,79.00
2022-11-05T18:54:16.471Z,55.70
2022-11-05T18:56:47.502Z,66.30
2022-11-05T19:02:08.083Z,69.00
2022-11-05T19:04:37.512Z,71.40
2022-11-05T19:07:07.242Z,73.50
2022-11-05T19:09:37.936Z,76.70
2022-11-05T19:12:07.394Z,84.00
2022-11-05T19:14:35.946Z,98.10
2022-11-05T19:17:04.592Z,83.00
2022-11-05T19:19:34.573Z,85.40
2022-11-05T19:22:04.187Z,88.60
2022-11-05T19:24:32.923Z,81.00
2022-11-05T19:27:02.093Z,73.40
2022-11-05T19:29:30.920Z,69.80
2022-11-05T19:31:59.616Z,58.10
2022-11-05T19:34:27.785Z,69.30
2022-11-05T19:36:55.750Z,77.50
2022-11-05T19:39:23.842Z,86.40
2022-11-05T19:41:51.977Z,92.20
2022-11-05T19:44:20.032Z,81.30
2022-11-05T19:46:48.690Z,79.50
2022-11-05T19:49:17.093Z,54.40
2022-11-05T19:51:45.678Z,66.20
2022-11-05T19:54:14.235Z,149.20
2022-11-05T19:56:43.123Z,143.00
2022-11-05T19:59:13.155Z,121.70
2022-11-05T20:01:45.084Z,97.70
2022-11-05T20:04:14.233Z,81.90
2022-11-05T20:06:42.692Z,75.60
2022-11-05T20:09:22.561Z,66.00
2022-11-05T20:11:56.692Z,67.50
2022-11-05T20:14:26.672Z,58.50
2022-11-05T20:16:55.465Z,61.80
2022-11-05T20:19:24.278Z,55.90
2022-11-05T20:21:53.135Z,74.10
2022-11-05T20:24:25.371Z,69.90
2022-11-05T20:26:55.748Z,74.90
2022-11-05T20:29:30.496Z,85.40
2022-11-05T20:32:04.831Z,77.80
2022-11-05T20:34:35.111Z,68.50
2022-11-05T20:37:04.355Z,94.00
2022-11-05T20:39:33.181Z,100.70
2022-11-05T20:42:02.112Z,81.70
2022-11-05T20:44:33.293Z,89.10
2022-11-05T20:47:02.218Z,108.40
2022-11-05T20:49:31.136Z,108.70
2022-11-05T20:51:59.745Z,103.20
2022-11-05T20:54:28.031Z,121.30
2022-11-05T20:56:56.237Z,127.90
2022-11-05T20:59:24.919Z,115.90
2022-11-05T21:01:53.418Z,83.60
2022-11-05T21:04:21.670Z,68.00
2022-11-05T21:06:49.714Z,65.50
2022-11-05T21:09:17.764Z,64.40
2022-11-05T21:12:04.671Z,60.50
2022-11-05T21:14:32.718Z,59.20
2022-11-05T21:17:01.010Z,51.40
2022-11-05T21:19:32.747Z,51.50
2022-11-05T21:22:02.014Z,53.90
2022-11-05T21:24:31.352Z,53.70
2022-11-05T21:26:59.707Z,53.20
2022-11-05T21:29:28.151Z,51.40
2022-11-05T21:31:56.343Z,46.00
2022-11-05T21:34:24.808Z,47.00
2022-11-05T21:36:53.334Z,45.50
2022-11-05T21:39:22.020Z,48.80
2022-11-05T21:41:50.417Z,54.00
2022-11-05T21:44:19.314Z,54.60
2022-11-05T21:46:47.756Z,61.80
2022-11-05T21:49:19.561Z,57.40
2022-11-05T21:52:06.947Z,57.10
2022-11-05T21:54:54.039Z,73.90
2022-11-05T21:57:41.079Z,104.20
2022-11-05T22:00:11.985Z,96.20
2022-11-05T22:02:40.146Z,89.10
2022-11-05T22:05:08.747Z,81.40
2022-11-05T22:07:39.023Z,83.70
2022-11-05T22:10:16.175Z,95.10
2022-11-05T22:12:45.497Z,151.60
2022-11-05T22:15:13.996Z,153.30
2022-11-05T22:17:46.473Z,122.50
2022-11-05T22:20:16.201Z,98.60
2022-11-05T22:22:45.285Z,102.00
2022-11-05T22:25:14.506Z,109.10
2022-11-05T22:27:44.044Z,113.10
2022-11-05T22:30:13.573Z,94.90
2022-11-05T22:32:41.512Z,91.80
2022-11-05T22:35:10.001Z,90.70
2022-11-05T22:37:38.152Z,91.70
2022-11-05T22:40:06.966Z,84.80
2022-11-05T22:42:34.927Z,79.80
2022-11-05T22:45:03.011Z,85.50
2022-11-05T22:47:30.791Z,77.80
2022-11-05T22:49:58.824Z,72.80
2022-11-05T22:52:27.092Z,77.50
2022-11-05T22:54:55.012Z,66.40
2022-11-05T22:57:22.825Z,64.70
2022-11-05T22:59:50.747Z,56.20
2022-11-05T23:02:18.638Z,61.00
2022-11-05T23:04:46.575Z,67.20
2022-11-05T23:07:33.071Z,67.20
2022-11-05T23:10:19.389Z,64.50
2022-11-05T23:12:47.206Z,66.10
2022-11-05T23:15:34.988Z,61.50
2022-11-05T23:18:21.751Z,70.90
2022-11-05T23:21:08.460Z,67.30
2022-11-05T23:23:55.261Z,67.20
2022-11-05T23:26:42.164Z,66.80
2022-11-05T23:29:10.128Z,66.80
2022-11-05T23:31:56.741Z,77.00
2022-11-05T23:34:24.600Z,66.40
2022-11-05T23:37:11.136Z,61.40
2022-11-05T23:39:42.682Z,72.90
2022-11-05T23:42:33.139Z,57.80
2022-11-05T23:45:19.621Z,68.50
2022-11-05T23:48:06.633Z,60.00
2022-11-05T23:50:39.543Z,64.30
2022-11-05T23:53:08.529Z,60.10
2022-11-05T23:55:36.418Z,72.30
2022-11-05T23:58:04.362Z,65.30
